• Join FlightAware (Why Join?)
  • Login
  • US Flag 
Gobble Gobble! 
09:39AM EST


 

Airport Tracker/Info


-or-


 

Live Flight TrackerFlight Track Log ✈ JBU56 ✈ 22-Nov-2013 ✈ KIAD - KBOS

Flight Track Log - Related Links

Times and Time Zones

All times are in EST time to prevent confusion due to time zone crossing. See the JBU56 flight status page for this flight to view local times or setup timezone preferences in your user account.

Time Position Orientation Groundspeed Altitude Reporting Facility
EST Latitude Longitude Course Direction KTS MPH feet Rate Location/Type
12:24PM 39.0500 -77.5333 44° Northeast 273 314 6,600  Level Potomac TRACON
12:25PM 39.1167 -77.4500 44° Northeast 309 356 9,500 1,080 Climbing Potomac TRACON
12:27PM 39.1808 -77.2839 63° Northeast 304 350 9,900 300 Climbing Washington Center
12:28PM 39.1383 -77.1786 117° Southeast 283 326 10,400 1,380 Climbing Washington Center
12:29PM 39.0919 -77.0597 117° Southeast 318 366 12,800 2,460 Climbing Washington Center
12:30PM 39.0789 -76.9258 97° East 346 398 15,200 2,460 Climbing Washington Center
12:31PM 39.0950 -76.7817 82° East 373 429 17,700 2,160 Climbing Washington Center
12:32PM 39.1089 -76.6322 83° East 396 456 19,600 1,920 Climbing Washington Center
12:33PM 39.1247 -76.4719 83° East 433 498 21,700 1,680 Climbing Washington Center
12:34PM 39.1425 -76.3089 82° East 447 514 23,000 600 Climbing Washington Center
12:35PM 39.1622 -76.1431 81° East 459 528 23,000 60 Level Washington Center
12:36PM 39.1817 -75.9744 81° East 469 540 23,200 1,020 Climbing Washington Center
12:37PM 39.2361 -75.8247 65° Northeast 461 531 25,100 1,680 Climbing Washington Center
12:38PM 39.3258 -75.7097 45° Northeast 442 509 26,600 1,440 Climbing Washington Center
12:39PM 39.4178 -75.5917 45° Northeast 447 514 28,000 1,500 Climbing Washington Center
12:40PM 39.5072 -75.4758 45° Northeast 453 521 29,700 1,440 Climbing Washington Center
12:41PM 39.5986 -75.3544 46° Northeast 453 521 31,000 360 Climbing Washington Center
12:43PM 39.8214 -75.0414 47° Northeast 482 555 31,000  Level New York Center
12:44PM 39.9136 -74.9117 47° Northeast 488 562 31,000  Level New York Center
12:45PM 39.9953 -74.7836 50° Northeast 476 548 31,000  Level New York Center
12:46PM 40.0869 -74.6642 45° Northeast 471 542 31,000  Level New York Center
12:47PM 40.1264 -74.5333 68° East 471 542 31,000  Level New York Center
12:48PM 40.1578 -74.3286 79° East 484 557 31,000  Level New York Center
12:49PM 40.1881 -74.1536 77° East 484 557 31,000  Level New York Center
12:50PM 40.2547 -74.0072 59° Northeast 475 547 31,000  Level New York Center
12:51PM 40.3594 -73.9142 34° Northeast 441 507 31,000 -180 Level New York Center
12:53PM 40.5500 -73.7375 35° Northeast 445 512 30,600 -660 Descending Boston Center
12:54PM 40.6553 -73.6364 36° Northeast 441 507 29,200 -1,320 Descending Boston Center
12:55PM 40.7514 -73.5472 35° Northeast 446 513 27,900 -1,140 Descending Boston Center
12:56PM 40.8575 -73.4436 36° Northeast 464 534 27,000 -600 Descending Boston Center
12:57PM 40.9481 -73.3133 47° Northeast 479 551 26,700 -660 Descending Boston Center
12:58PM 41.0356 -73.1822 48° Northeast 479 551 25,700 -1,080 Descending Boston Center
12:59PM 41.1403 -73.0272 48° Northeast 474 545 24,500 -1,080 Descending Boston Center
01:00PM 41.2228 -72.8931 51° Northeast 473 544 23,500 -780 Descending Boston Center
01:01PM 41.2853 -72.7233 64° Northeast 481 554 23,000 -300 Descending Boston Center
01:02PM 41.3411 -72.5625 65° Northeast 478 550 23,000  Level Boston Center
01:03PM 41.3956 -72.4014 66° East 477 549 23,000 -300 Level Boston Center
01:04PM 41.4519 -72.2403 65° Northeast 479 551 22,400 -1,440 Descending Boston Center
01:05PM 41.5050 -72.0836 66° East 468 539 20,100 -2,520 Descending Boston Center
01:06PM 41.5642 -71.9114 65° Northeast 458 527 17,200 -2,760 Descending Boston Center
01:07PM 41.6122 -71.7669 66° East 430 495 14,600 -2,580 Descending Boston Center
01:08PM 41.6578 -71.6311 66° East 408 470 12,000 -1,800 Descending Boston Center
01:09PM 41.7019 -71.4972 66° East 373 429 11,000 -540 Descending Boston Center
01:10PM 41.7417 -71.3889 64° Northeast 330 380 11,000  Level Boston Center
01:11PM 41.7806 -71.2656 67° East 335 386 11,000  Level Boston Center
01:12PM 41.8161 -71.1500 68° East 338 389 11,000  Level Boston Center
01:13PM 41.8533 -71.0336 67° East 339 390 11,000  Level Boston Center
01:14PM 41.8897 -70.9156 67° East 316 364 11,000 -420 Level Boston Center
01:16PM 41.9333 -70.8000 63° Northeast 289 333 10,200 -780 Descending KA90
01:17PM 41.9667 -70.7167 62° Northeast 279 321 9,400 -720 Descending KA90
01:18PM 42.0142 -70.6650 39° Northeast 277 319 8,800 -660 Descending Boston Center
01:19PM 42.0711 -70.5994 41° Northeast 272 313 8,100 -540 Descending Boston Center
01:20PM 42.1333 -70.5167 45° Northeast 265 305 7,800 -420 Descending KA90
01:21PM 42.2000 -70.4833 20° North 226 260 7,300 -840 Descending KA90
01:22PM 42.2667 -70.4833 360° North 226 260 6,100 -1,200 Descending KA90
01:23PM 42.3333 -70.5000 350° North 219 252 5,000 -600 Descending KA90
01:24PM 42.3833 -70.5167 346° North 222 255 5,000  Level KA90
01:25PM 42.4167 -70.5667 312° West 200 230 5,000  Level KA90
01:26PM 42.4428 -70.6356 297° West 204 235 5,000  Level Boston Center
01:27PM 42.4636 -70.7067 292° West 203 234 5,000  Level Boston Center
01:28PM 42.4550 -70.7819 261° West 202 232 5,000  Level Boston Center
01:29PM 42.5197 -70.7872 357° North 223 257 5,000 -360 Level Boston Center
01:30PM 42.5792 -70.7572 20° North 229 264 4,300 -540 Descending Boston Center
01:31PM 42.6408 -70.7297 18° North 230 265 4,000 -180 Descending Boston Center
01:32PM 42.7056 -70.6989 19° North 230 265 4,000  Level Boston Center
01:33PM 42.7631 -70.6939 North 226 260 4,000  Level Boston Center
01:34PM 42.7903 -70.7611 299° West 205 236 4,000  Level Boston Center
01:35PM 42.7600 -70.8144 232° Southwest 207 238 4,000  Level Boston Center
01:36PM 42.7097 -70.8383 199° South 194 223 4,000  Level Boston Center
01:37PM 42.6611 -70.8617 199° South 188 216 4,000  Level Boston Center
01:38PM 42.6167 -70.8833 200° South 183 211 4,000  Level KA90
01:39PM 42.5833 -70.9000 200° South 167 192 4,000 -240 Level KA90
01:40PM 42.5333 -70.9167 194° South 169 194 3,500 -780 Descending KA90
01:41PM 42.5000 -70.9333 200° South 158 182 2,700 -900 Descending KA90
01:42PM 42.4500 -70.9667 206° Southwest 135 155 1,800 -840 Descending KA90
01:43PM 42.4167 -70.9833 200° South 146 168 1,000 -780 Descending KA90
01:44PM 42.3833 -71.0000 200° South 154 177 300 -720 Descending KA90